AAL583 KDFW-KEGE
Flight info
| Callsign | AAL583 |
|---|---|
| Flight time | 2h 5m |
| Altitude | 32000 |
| Route | LOWGN8 ADM TOTOE LPINE VAAIL1 |
| Aircraft | A319/M-SDE3FGHIRWY/LB1 |
Departure
| Time | 2026-05-04 03:08 |
|---|---|
| Airport | Dallas Fort Worth International Airport (KDFW) |
Arrival
| Time | 2026-05-04 05:13 |
|---|---|
| Airport | Eagle County Regional Airport (KEGE) |
| Time | Latitude | Longitude | Altitude | Speed | Heading |
|---|---|---|---|---|---|
| 2026-05-04 02:38 | 32.89713 | -97.04573 | 616 ft | 0 kts | 92° |
| 2026-05-04 02:56 | 32.89713 | -97.04586 | 630 ft | 4 kts | 92° |
| 2026-05-04 02:56 | 32.89714 | -97.04618 | 630 ft | 4 kts | 91° |
| 2026-05-04 02:57 | 32.89714 | -97.04644 | 630 ft | 4 kts | 77° |
| 2026-05-04 02:57 | 32.89702 | -97.04665 | 630 ft | 4 kts | 15° |
| 2026-05-04 02:57 | 32.89681 | -97.04668 | 620 ft | 0 kts | 0° |
| 2026-05-04 02:59 | 32.89704 | -97.04668 | 627 ft | 8 kts | 0° |
| 2026-05-04 03:00 | 32.89786 | -97.04667 | 622 ft | 17 kts | 1° |
| 2026-05-04 03:00 | 32.89900 | -97.04666 | 619 ft | 16 kts | 0° |
| 2026-05-04 03:00 | 32.90007 | -97.04694 | 618 ft | 17 kts | 339° |
| 2026-05-04 03:00 | 32.90117 | -97.04754 | 621 ft | 18 kts | 336° |
| 2026-05-04 03:01 | 32.90244 | -97.04760 | 623 ft | 19 kts | 1° |
| 2026-05-04 03:01 | 32.90380 | -97.04756 | 620 ft | 20 kts | 1° |
| 2026-05-04 03:01 | 32.90524 | -97.04765 | 626 ft | 21 kts | 357° |
| 2026-05-04 03:01 | 32.90672 | -97.04756 | 622 ft | 21 kts | 3° |
| 2026-05-04 03:02 | 32.90822 | -97.04751 | 622 ft | 22 kts | 1° |
| 2026-05-04 03:02 | 32.90919 | -97.04707 | 621 ft | 14 kts | 75° |
| 2026-05-04 03:02 | 32.90913 | -97.04585 | 616 ft | 16 kts | 95° |
| 2026-05-04 03:02 | 32.90907 | -97.04450 | 616 ft | 17 kts | 92° |
| 2026-05-04 03:03 | 32.90905 | -97.04300 | 616 ft | 19 kts | 90° |
| 2026-05-04 03:03 | 32.90909 | -97.04136 | 616 ft | 21 kts | 88° |
| 2026-05-04 03:03 | 32.90911 | -97.03958 | 616 ft | 22 kts | 91° |
| 2026-05-04 03:03 | 32.90905 | -97.03767 | 616 ft | 24 kts | 89° |
| 2026-05-04 03:04 | 32.90906 | -97.03565 | 615 ft | 25 kts | 90° |
| 2026-05-04 03:04 | 32.90906 | -97.03357 | 615 ft | 24 kts | 90° |
| 2026-05-04 03:04 | 32.90912 | -97.03199 | 625 ft | 10 kts | 66° |
| 2026-05-04 03:04 | 32.90976 | -97.03182 | 619 ft | 8 kts | 2° |
| 2026-05-04 03:05 | 32.91032 | -97.03182 | 621 ft | 9 kts | 357° |
| 2026-05-04 03:05 | 32.91098 | -97.03186 | 618 ft | 10 kts | 357° |
| 2026-05-04 03:05 | 32.91172 | -97.03189 | 621 ft | 11 kts | 358° |
| 2026-05-04 03:05 | 32.91251 | -97.03193 | 618 ft | 12 kts | 358° |
| 2026-05-04 03:06 | 32.91336 | -97.03187 | 616 ft | 13 kts | 4° |
| 2026-05-04 03:06 | 32.91413 | -97.03152 | 616 ft | 12 kts | 64° |
| 2026-05-04 03:06 | 32.91422 | -97.03047 | 616 ft | 14 kts | 89° |
| 2026-05-04 03:06 | 32.91364 | -97.02992 | 620 ft | 12 kts | 182° |
| 2026-05-04 03:07 | 32.91240 | -97.02994 | 622 ft | 32 kts | 180° |
| 2026-05-04 03:07 | 32.90821 | -97.02996 | 621 ft | 88 kts | 180° |
| 2026-05-04 03:07 | 32.90035 | -97.03001 | 622 ft | 137 kts | 180° |
| 2026-05-04 03:07 | 32.88958 | -97.03006 | 879 ft | 157 kts | 181° |
| 2026-05-04 03:08 | 32.87869 | -97.02983 | 1531 ft | 157 kts | 179° |
| 2026-05-04 03:08 | 32.86780 | -97.02935 | 2258 ft | 157 kts | 180° |
| 2026-05-04 03:08 | 32.85584 | -97.02887 | 2415 ft | 192 kts | 180° |
| 2026-05-04 03:08 | 32.84140 | -97.02466 | 2396 ft | 236 kts | 159° |
| 2026-05-04 03:09 | 32.82598 | -97.01654 | 3238 ft | 240 kts | 160° |
| 2026-05-04 03:09 | 32.81063 | -97.00879 | 4284 ft | 241 kts | 161° |
| 2026-05-04 03:09 | 32.79506 | -97.00076 | 5211 ft | 248 kts | 156° |
| 2026-05-04 03:09 | 32.78164 | -96.98710 | 6054 ft | 264 kts | 130° |
| 2026-05-04 03:10 | 32.77357 | -96.96738 | 6885 ft | 274 kts | 114° |
| 2026-05-04 03:10 | 32.76744 | -96.94575 | 7698 ft | 280 kts | 105° |
| 2026-05-04 03:10 | 32.76544 | -96.92234 | 8410 ft | 293 kts | 89° |
| 2026-05-04 03:10 | 32.76653 | -96.89788 | 9197 ft | 299 kts | 88° |
| 2026-05-04 03:11 | 32.76935 | -96.87318 | 10018 ft | 305 kts | 73° |
| 2026-05-04 03:11 | 32.77853 | -96.84982 | 10381 ft | 325 kts | 53° |
| 2026-05-04 03:11 | 32.79524 | -96.83061 | 10634 ft | 345 kts | 31° |
| 2026-05-04 03:11 | 32.81755 | -96.81961 | 11190 ft | 351 kts | 11° |
| 2026-05-04 03:12 | 32.84158 | -96.81356 | 11891 ft | 355 kts | 9° |
| 2026-05-04 03:12 | 32.86600 | -96.80937 | 12607 ft | 356 kts | 0° |
| 2026-05-04 03:12 | 32.89083 | -96.80919 | 13331 ft | 358 kts | 357° |
| 2026-05-04 03:12 | 32.91591 | -96.80922 | 14025 ft | 362 kts | 357° |
| 2026-05-04 03:13 | 32.94115 | -96.80923 | 14649 ft | 365 kts | 357° |
| 2026-05-04 03:13 | 32.96647 | -96.81135 | 15274 ft | 364 kts | 347° |
| 2026-05-04 03:13 | 32.99079 | -96.81955 | 15904 ft | 364 kts | 335° |
| 2026-05-04 03:13 | 33.01311 | -96.83354 | 16535 ft | 362 kts | 323° |
| 2026-05-04 03:14 | 33.03311 | -96.85184 | 17172 ft | 364 kts | 318° |
| 2026-05-04 03:14 | 33.05297 | -96.87073 | 17777 ft | 366 kts | 319° |
| 2026-05-04 03:14 | 33.07298 | -96.88970 | 18389 ft | 369 kts | 319° |
| 2026-05-04 03:14 | 33.09318 | -96.90882 | 18831 ft | 372 kts | 319° |
| 2026-05-04 03:15 | 33.11340 | -96.92797 | 18968 ft | 371 kts | 319° |
| 2026-05-04 03:15 | 33.13360 | -96.94711 | 19008 ft | 371 kts | 319° |
| 2026-05-04 03:15 | 33.15379 | -96.96625 | 19010 ft | 370 kts | 319° |
| 2026-05-04 03:15 | 33.17395 | -96.98535 | 19012 ft | 370 kts | 319° |
| 2026-05-04 03:16 | 33.19413 | -97.00449 | 19012 ft | 370 kts | 319° |
| 2026-05-04 03:16 | 33.21425 | -97.02366 | 19014 ft | 370 kts | 319° |
| 2026-05-04 03:16 | 33.23435 | -97.04282 | 19015 ft | 370 kts | 319° |
| 2026-05-04 03:16 | 33.25448 | -97.06205 | 19016 ft | 370 kts | 318° |
| 2026-05-04 03:17 | 33.27455 | -97.08122 | 19016 ft | 370 kts | 318° |
| 2026-05-04 03:17 | 33.29466 | -97.10043 | 19015 ft | 370 kts | 318° |
| 2026-05-04 03:17 | 33.31474 | -97.11962 | 19014 ft | 370 kts | 318° |
| 2026-05-04 03:17 | 33.33483 | -97.13882 | 19013 ft | 370 kts | 318° |
| 2026-05-04 03:18 | 33.35491 | -97.15802 | 19010 ft | 370 kts | 318° |
| 2026-05-04 03:18 | 33.37500 | -97.17726 | 19009 ft | 370 kts | 318° |
| 2026-05-04 03:18 | 33.39481 | -97.19625 | 19008 ft | 370 kts | 318° |
| 2026-05-04 03:18 | 33.41495 | -97.21538 | 19005 ft | 371 kts | 321° |
| 2026-05-04 03:19 | 33.43725 | -97.23114 | 19011 ft | 375 kts | 332° |
| 2026-05-04 03:19 | 33.46209 | -97.24120 | 19012 ft | 380 kts | 344° |
| 2026-05-04 03:19 | 33.48843 | -97.24497 | 19018 ft | 384 kts | 356° |
| 2026-05-04 03:19 | 33.51522 | -97.24301 | 19020 ft | 387 kts | 2° |
| 2026-05-04 03:20 | 33.54203 | -97.24014 | 19024 ft | 387 kts | 2° |
| 2026-05-04 03:20 | 33.56890 | -97.23728 | 19027 ft | 387 kts | 2° |
| 2026-05-04 03:20 | 33.59570 | -97.23440 | 19031 ft | 387 kts | 2° |
| 2026-05-04 03:20 | 33.62254 | -97.23154 | 19027 ft | 387 kts | 1° |
| 2026-05-04 03:21 | 33.64936 | -97.22870 | 19027 ft | 387 kts | 1° |
| 2026-05-04 03:21 | 33.67620 | -97.22586 | 19029 ft | 387 kts | 1° |
| 2026-05-04 03:21 | 33.70303 | -97.22300 | 19027 ft | 387 kts | 2° |
| 2026-05-04 03:21 | 33.72984 | -97.22007 | 19028 ft | 387 kts | 2° |
| 2026-05-04 03:22 | 33.75667 | -97.21715 | 18988 ft | 388 kts | 2° |
| 2026-05-04 03:22 | 33.78354 | -97.21427 | 18979 ft | 388 kts | 2° |
| 2026-05-04 03:22 | 33.81041 | -97.21143 | 18976 ft | 387 kts | 1° |
| 2026-05-04 03:22 | 33.83726 | -97.20861 | 18978 ft | 387 kts | 1° |
| 2026-05-04 03:23 | 33.86409 | -97.20576 | 18979 ft | 388 kts | 2° |
| 2026-05-04 03:23 | 33.89098 | -97.20287 | 18976 ft | 388 kts | 2° |
| 2026-05-04 03:23 | 33.91781 | -97.19996 | 18974 ft | 388 kts | 2° |
| 2026-05-04 03:23 | 33.94467 | -97.19706 | 18972 ft | 388 kts | 2° |
| 2026-05-04 03:24 | 33.97153 | -97.19417 | 18971 ft | 388 kts | 2° |
| 2026-05-04 03:24 | 33.99840 | -97.19129 | 18972 ft | 388 kts | 2° |
| 2026-05-04 03:24 | 34.02527 | -97.18841 | 18975 ft | 388 kts | 2° |
| 2026-05-04 03:24 | 34.05217 | -97.18554 | 18973 ft | 388 kts | 2° |
| 2026-05-04 03:25 | 34.07868 | -97.18270 | 18976 ft | 388 kts | 2° |
| 2026-05-04 03:25 | 34.10557 | -97.17977 | 18976 ft | 388 kts | 2° |
| 2026-05-04 03:25 | 34.13242 | -97.17685 | 18974 ft | 388 kts | 2° |
| 2026-05-04 03:25 | 34.15927 | -97.17593 | 18976 ft | 384 kts | 353° |
| 2026-05-04 03:26 | 34.18555 | -97.18049 | 18979 ft | 380 kts | 343° |
| 2026-05-04 03:26 | 34.21053 | -97.19028 | 18982 ft | 376 kts | 333° |
| 2026-05-04 03:26 | 34.23363 | -97.20481 | 18975 ft | 373 kts | 324° |
| 2026-05-04 03:26 | 34.25429 | -97.22357 | 18975 ft | 370 kts | 315° |
| 2026-05-04 03:27 | 34.27234 | -97.24563 | 18983 ft | 369 kts | 310° |
| 2026-05-04 03:27 | 34.28995 | -97.26812 | 18974 ft | 369 kts | 310° |
| 2026-05-04 03:27 | 34.30762 | -97.29059 | 18972 ft | 369 kts | 311° |
| 2026-05-04 03:27 | 34.32531 | -97.31306 | 18968 ft | 369 kts | 311° |
| 2026-05-04 03:28 | 34.34298 | -97.33553 | 18966 ft | 369 kts | 311° |
| 2026-05-04 03:28 | 34.36064 | -97.35802 | 18964 ft | 368 kts | 311° |
| 2026-05-04 03:28 | 34.37823 | -97.38049 | 18962 ft | 368 kts | 310° |
| 2026-05-04 03:28 | 34.39587 | -97.40305 | 18959 ft | 368 kts | 310° |
| 2026-05-04 03:29 | 34.41351 | -97.42559 | 18952 ft | 368 kts | 311° |
| 2026-05-04 03:29 | 34.43113 | -97.44808 | 18951 ft | 369 kts | 310° |
| 2026-05-04 03:29 | 34.44875 | -97.47060 | 18951 ft | 369 kts | 310° |
| 2026-05-04 03:29 | 34.46636 | -97.49313 | 18957 ft | 368 kts | 310° |
| 2026-05-04 03:30 | 34.48399 | -97.51571 | 18954 ft | 368 kts | 310° |
| 2026-05-04 03:30 | 34.50159 | -97.53830 | 18955 ft | 368 kts | 310° |
| 2026-05-04 03:30 | 34.51914 | -97.56086 | 18954 ft | 368 kts | 310° |
| 2026-05-04 03:30 | 34.53668 | -97.58347 | 18960 ft | 368 kts | 310° |
| 2026-05-04 03:31 | 34.55422 | -97.60608 | 18947 ft | 368 kts | 310° |
| 2026-05-04 03:31 | 34.57176 | -97.62871 | 18950 ft | 369 kts | 310° |
| 2026-05-04 03:31 | 34.58934 | -97.65134 | 18952 ft | 369 kts | 310° |
| 2026-05-04 03:31 | 34.60693 | -97.67400 | 18953 ft | 369 kts | 310° |
| 2026-05-04 03:32 | 34.62453 | -97.69667 | 18953 ft | 369 kts | 310° |
| 2026-05-04 03:32 | 34.64213 | -97.71932 | 18954 ft | 369 kts | 310° |
| 2026-05-04 03:32 | 34.65971 | -97.74197 | 18954 ft | 369 kts | 310° |
| 2026-05-04 03:32 | 34.67730 | -97.76466 | 18950 ft | 369 kts | 310° |
| 2026-05-04 03:33 | 34.69461 | -97.78705 | 18949 ft | 368 kts | 310° |
| 2026-05-04 03:33 | 34.71214 | -97.80975 | 18947 ft | 368 kts | 310° |
| 2026-05-04 03:33 | 34.72965 | -97.83244 | 18946 ft | 368 kts | 310° |
| 2026-05-04 03:33 | 34.74719 | -97.85518 | 18953 ft | 369 kts | 310° |
| 2026-05-04 03:34 | 34.76472 | -97.87792 | 18940 ft | 368 kts | 310° |
| 2026-05-04 03:34 | 34.78227 | -97.90065 | 18933 ft | 368 kts | 310° |
| 2026-05-04 03:34 | 34.79980 | -97.92337 | 18924 ft | 368 kts | 310° |
| 2026-05-04 03:34 | 34.81734 | -97.94612 | 18923 ft | 368 kts | 310° |
| 2026-05-04 03:35 | 34.83484 | -97.96887 | 18922 ft | 368 kts | 310° |
| 2026-05-04 03:35 | 34.85236 | -97.99166 | 18924 ft | 369 kts | 310° |
| 2026-05-04 03:35 | 34.86988 | -98.01448 | 18923 ft | 369 kts | 310° |
| 2026-05-04 03:35 | 34.88738 | -98.03727 | 18915 ft | 368 kts | 310° |
| 2026-05-04 03:36 | 34.90484 | -98.06002 | 18895 ft | 368 kts | 310° |
| 2026-05-04 03:36 | 34.92228 | -98.08279 | 18896 ft | 368 kts | 310° |
| 2026-05-04 03:36 | 34.93973 | -98.10557 | 18896 ft | 368 kts | 310° |
| 2026-05-04 03:36 | 34.95719 | -98.12835 | 18896 ft | 368 kts | 310° |
| 2026-05-04 03:37 | 34.97464 | -98.15113 | 18892 ft | 368 kts | 310° |
| 2026-05-04 03:37 | 34.99206 | -98.17392 | 18886 ft | 367 kts | 310° |
| 2026-05-04 03:37 | 35.00946 | -98.19671 | 18879 ft | 367 kts | 310° |
| 2026-05-04 03:37 | 35.02684 | -98.21948 | 18882 ft | 367 kts | 310° |
| 2026-05-04 03:38 | 35.04423 | -98.24225 | 18878 ft | 367 kts | 310° |
| 2026-05-04 03:38 | 35.06168 | -98.26509 | 18876 ft | 367 kts | 310° |
| 2026-05-04 03:38 | 35.07906 | -98.28782 | 18879 ft | 367 kts | 310° |
| 2026-05-04 03:38 | 35.09647 | -98.31061 | 18882 ft | 367 kts | 310° |
| 2026-05-04 03:39 | 35.11385 | -98.33343 | 18876 ft | 367 kts | 310° |
| 2026-05-04 03:39 | 35.13099 | -98.35598 | 18882 ft | 368 kts | 310° |
| 2026-05-04 03:39 | 35.14841 | -98.37894 | 18884 ft | 368 kts | 309° |
| 2026-05-04 03:39 | 35.16583 | -98.40190 | 18882 ft | 369 kts | 309° |
| 2026-05-04 03:40 | 35.18325 | -98.42488 | 18880 ft | 369 kts | 310° |
| 2026-05-04 03:40 | 35.20071 | -98.44787 | 18881 ft | 369 kts | 310° |
| 2026-05-04 03:40 | 35.21814 | -98.47080 | 18883 ft | 368 kts | 310° |
| 2026-05-04 03:40 | 35.23555 | -98.49375 | 18882 ft | 368 kts | 310° |
| 2026-05-04 03:41 | 35.25294 | -98.51671 | 18885 ft | 368 kts | 310° |
| 2026-05-04 03:41 | 35.27031 | -98.53971 | 18884 ft | 368 kts | 310° |
| 2026-05-04 03:41 | 35.28768 | -98.56271 | 18888 ft | 368 kts | 310° |
| 2026-05-04 03:41 | 35.30504 | -98.58568 | 18891 ft | 368 kts | 310° |
| 2026-05-04 03:42 | 35.32240 | -98.60869 | 18893 ft | 368 kts | 310° |
| 2026-05-04 03:42 | 35.33974 | -98.63171 | 18897 ft | 368 kts | 310° |
| 2026-05-04 03:42 | 35.35124 | -98.64697 | 18897 ft | 368 kts | 310° |
| 2026-05-04 03:42 | 35.36862 | -98.67001 | 18900 ft | 368 kts | 310° |
| 2026-05-04 03:43 | 35.39164 | -98.70054 | 18904 ft | 368 kts | 310° |
| 2026-05-04 03:43 | 35.40899 | -98.72358 | 18908 ft | 368 kts | 310° |
| 2026-05-04 03:43 | 35.42074 | -98.73919 | 18908 ft | 368 kts | 309° |
| 2026-05-04 03:43 | 35.43810 | -98.76225 | 18921 ft | 368 kts | 310° |
| 2026-05-04 03:44 | 35.45543 | -98.78529 | 18905 ft | 367 kts | 310° |
| 2026-05-04 03:44 | 35.47274 | -98.80835 | 18850 ft | 367 kts | 310° |
| 2026-05-04 03:44 | 35.49003 | -98.83141 | 18852 ft | 367 kts | 310° |
| 2026-05-04 03:44 | 35.50731 | -98.85444 | 18853 ft | 367 kts | 310° |
| 2026-05-04 03:45 | 35.52434 | -98.87718 | 18856 ft | 367 kts | 310° |
| 2026-05-04 03:45 | 35.54160 | -98.90025 | 18847 ft | 366 kts | 310° |
| 2026-05-04 03:45 | 35.55883 | -98.92328 | 18847 ft | 366 kts | 310° |
| 2026-05-04 03:45 | 35.57608 | -98.94631 | 18844 ft | 366 kts | 310° |
| 2026-05-04 03:46 | 35.59334 | -98.96936 | 18847 ft | 366 kts | 310° |
| 2026-05-04 03:46 | 35.61056 | -98.99243 | 18845 ft | 366 kts | 310° |
| 2026-05-04 03:46 | 35.62775 | -99.01553 | 18836 ft | 366 kts | 310° |
| 2026-05-04 03:46 | 35.64493 | -99.03861 | 18836 ft | 366 kts | 310° |
| 2026-05-04 03:47 | 35.66212 | -99.06170 | 18833 ft | 366 kts | 309° |
| 2026-05-04 03:47 | 35.67934 | -99.08486 | 18836 ft | 366 kts | 309° |
| 2026-05-04 03:47 | 35.69652 | -99.10798 | 18837 ft | 366 kts | 309° |
| 2026-05-04 03:47 | 35.71374 | -99.13106 | 18825 ft | 366 kts | 310° |
| 2026-05-04 03:48 | 35.73094 | -99.15412 | 18825 ft | 366 kts | 310° |
| 2026-05-04 03:48 | 35.74817 | -99.17720 | 18825 ft | 366 kts | 310° |
| 2026-05-04 03:48 | 35.76535 | -99.20029 | 18825 ft | 366 kts | 309° |
| 2026-05-04 03:48 | 35.78247 | -99.22344 | 18825 ft | 366 kts | 309° |
| 2026-05-04 03:49 | 35.79958 | -99.24663 | 18826 ft | 366 kts | 309° |
| 2026-05-04 03:49 | 35.81670 | -99.26981 | 18825 ft | 366 kts | 309° |
| 2026-05-04 03:49 | 35.83383 | -99.29296 | 18825 ft | 366 kts | 309° |
| 2026-05-04 03:49 | 35.85099 | -99.31607 | 18825 ft | 366 kts | 309° |
| 2026-05-04 03:50 | 35.86817 | -99.33927 | 18828 ft | 366 kts | 309° |
| 2026-05-04 03:50 | 35.88530 | -99.36243 | 18836 ft | 366 kts | 309° |
| 2026-05-04 03:50 | 35.90218 | -99.38525 | 18820 ft | 365 kts | 309° |
| 2026-05-04 03:50 | 35.91924 | -99.40838 | 18820 ft | 365 kts | 309° |
| 2026-05-04 03:51 | 35.93628 | -99.43153 | 18820 ft | 364 kts | 309° |
| 2026-05-04 03:51 | 35.95328 | -99.45473 | 18820 ft | 364 kts | 309° |
| 2026-05-04 03:51 | 35.97031 | -99.47793 | 18818 ft | 364 kts | 309° |
| 2026-05-04 03:51 | 35.98735 | -99.50111 | 18811 ft | 364 kts | 309° |
| 2026-05-04 03:52 | 36.00438 | -99.52430 | 18810 ft | 365 kts | 309° |
| 2026-05-04 03:52 | 36.02146 | -99.54753 | 18812 ft | 365 kts | 309° |
| 2026-05-04 03:52 | 36.03849 | -99.57076 | 18815 ft | 364 kts | 309° |
| 2026-05-04 03:52 | 36.05546 | -99.59396 | 18819 ft | 364 kts | 309° |
| 2026-05-04 03:53 | 36.07250 | -99.61722 | 18818 ft | 365 kts | 309° |
| 2026-05-04 03:53 | 36.08958 | -99.64046 | 18822 ft | 365 kts | 309° |
| 2026-05-04 03:53 | 36.10663 | -99.66369 | 18825 ft | 364 kts | 309° |
| 2026-05-04 03:53 | 36.12364 | -99.68692 | 18830 ft | 365 kts | 309° |
| 2026-05-04 03:54 | 36.14067 | -99.71019 | 18830 ft | 365 kts | 309° |
| 2026-05-04 03:54 | 36.15770 | -99.73350 | 18832 ft | 364 kts | 309° |
| 2026-05-04 03:54 | 36.17467 | -99.75677 | 18837 ft | 364 kts | 309° |
| 2026-05-04 03:54 | 36.19162 | -99.78003 | 18840 ft | 364 kts | 309° |
| 2026-05-04 03:55 | 36.20859 | -99.80333 | 18843 ft | 364 kts | 309° |
| 2026-05-04 03:55 | 36.22560 | -99.82668 | 18843 ft | 364 kts | 309° |
| 2026-05-04 03:55 | 36.24250 | -99.84994 | 18842 ft | 362 kts | 309° |
| 2026-05-04 03:55 | 36.25934 | -99.87311 | 18842 ft | 362 kts | 309° |
| 2026-05-04 03:56 | 36.27621 | -99.89626 | 18838 ft | 362 kts | 309° |
| 2026-05-04 03:56 | 36.29282 | -99.91908 | 18837 ft | 362 kts | 309° |
| 2026-05-04 03:56 | 36.30964 | -99.94224 | 18833 ft | 361 kts | 309° |
| 2026-05-04 03:56 | 36.32643 | -99.96543 | 18827 ft | 361 kts | 309° |
| 2026-05-04 03:57 | 36.34318 | -99.98860 | 18827 ft | 360 kts | 309° |
| 2026-05-04 03:57 | 36.35991 | -100.01172 | 18815 ft | 360 kts | 309° |
| 2026-05-04 03:57 | 36.37664 | -100.03482 | 18809 ft | 360 kts | 309° |
| 2026-05-04 03:57 | 36.39337 | -100.05791 | 18804 ft | 360 kts | 309° |
| 2026-05-04 03:58 | 36.42684 | -100.10416 | 18787 ft | 360 kts | 309° |
| 2026-05-04 03:58 | 36.44351 | -100.12729 | 18781 ft | 360 kts | 309° |
| 2026-05-04 03:58 | 36.46021 | -100.15046 | 18774 ft | 360 kts | 309° |
| 2026-05-04 03:59 | 36.47691 | -100.17364 | 18770 ft | 360 kts | 309° |
| 2026-05-04 03:59 | 36.49361 | -100.19685 | 18770 ft | 360 kts | 309° |
| 2026-05-04 03:59 | 36.51029 | -100.22005 | 18764 ft | 359 kts | 309° |
| 2026-05-04 03:59 | 36.52692 | -100.24319 | 18765 ft | 359 kts | 309° |
| 2026-05-04 04:00 | 36.54353 | -100.26631 | 18766 ft | 359 kts | 309° |
| 2026-05-04 04:00 | 36.56016 | -100.28946 | 18768 ft | 358 kts | 310° |
| 2026-05-04 04:00 | 36.57672 | -100.31254 | 18765 ft | 358 kts | 309° |
| 2026-05-04 04:00 | 36.59325 | -100.33566 | 18762 ft | 358 kts | 309° |
| 2026-05-04 04:01 | 36.60982 | -100.35876 | 18761 ft | 358 kts | 310° |
| 2026-05-04 04:01 | 36.62642 | -100.38188 | 18759 ft | 358 kts | 310° |
| 2026-05-04 04:01 | 36.64296 | -100.40498 | 18759 ft | 358 kts | 309° |
| 2026-05-04 04:01 | 36.65951 | -100.42816 | 18756 ft | 358 kts | 309° |
| 2026-05-04 04:02 | 36.67606 | -100.45132 | 18755 ft | 358 kts | 309° |
| 2026-05-04 04:02 | 36.69257 | -100.47449 | 18750 ft | 358 kts | 309° |
| 2026-05-04 04:02 | 36.70909 | -100.49770 | 18751 ft | 358 kts | 309° |
| 2026-05-04 04:02 | 36.72562 | -100.52086 | 18751 ft | 358 kts | 309° |
| 2026-05-04 04:03 | 36.74216 | -100.54399 | 18753 ft | 357 kts | 309° |
| 2026-05-04 04:03 | 36.75869 | -100.56714 | 18751 ft | 357 kts | 309° |
| 2026-05-04 04:03 | 36.77519 | -100.59030 | 18749 ft | 356 kts | 310° |
| 2026-05-04 04:03 | 36.79164 | -100.61333 | 18748 ft | 356 kts | 310° |
| 2026-05-04 04:04 | 36.80809 | -100.63639 | 18749 ft | 355 kts | 310° |
| 2026-05-04 04:04 | 36.82423 | -100.65914 | 18758 ft | 355 kts | 310° |
| 2026-05-04 04:04 | 36.84060 | -100.68227 | 18767 ft | 355 kts | 310° |
| 2026-05-04 04:04 | 36.85694 | -100.70538 | 18768 ft | 355 kts | 310° |
| 2026-05-04 04:05 | 36.87330 | -100.72854 | 18777 ft | 355 kts | 310° |
| 2026-05-04 04:05 | 36.88967 | -100.75170 | 18783 ft | 355 kts | 310° |
| 2026-05-04 04:05 | 36.90603 | -100.77481 | 18790 ft | 355 kts | 310° |
| 2026-05-04 04:05 | 36.92239 | -100.79791 | 18799 ft | 355 kts | 310° |
| 2026-05-04 04:06 | 36.93882 | -100.82108 | 18804 ft | 356 kts | 310° |
| 2026-05-04 04:06 | 36.95520 | -100.84423 | 18813 ft | 355 kts | 310° |
| 2026-05-04 04:06 | 36.97157 | -100.86741 | 18820 ft | 356 kts | 310° |
| 2026-05-04 04:06 | 36.98791 | -100.89064 | 18831 ft | 355 kts | 310° |
| 2026-05-04 04:07 | 37.00421 | -100.91379 | 18825 ft | 355 kts | 310° |
| 2026-05-04 04:07 | 37.02051 | -100.93699 | 18825 ft | 355 kts | 310° |
| 2026-05-04 04:07 | 37.03689 | -100.96029 | 19015 ft | 358 kts | 310° |
| 2026-05-04 04:07 | 37.05356 | -100.98361 | 19581 ft | 360 kts | 311° |
| 2026-05-04 04:08 | 37.07093 | -101.00635 | 20154 ft | 363 kts | 313° |
| 2026-05-04 04:08 | 37.08859 | -101.02850 | 20729 ft | 365 kts | 314° |
| 2026-05-04 04:08 | 37.10697 | -101.05119 | 21297 ft | 368 kts | 314° |
| 2026-05-04 04:08 | 37.12526 | -101.07377 | 21848 ft | 371 kts | 313° |
| 2026-05-04 04:09 | 37.14363 | -101.09661 | 22392 ft | 374 kts | 313° |
| 2026-05-04 04:09 | 37.16209 | -101.11973 | 22929 ft | 376 kts | 313° |
| 2026-05-04 04:09 | 37.18062 | -101.14308 | 23443 ft | 379 kts | 313° |
| 2026-05-04 04:09 | 37.19897 | -101.16634 | 23878 ft | 381 kts | 313° |
| 2026-05-04 04:10 | 37.21788 | -101.19036 | 24329 ft | 383 kts | 313° |
| 2026-05-04 04:10 | 37.23641 | -101.21392 | 24773 ft | 385 kts | 313° |
| 2026-05-04 04:10 | 37.25524 | -101.23781 | 25218 ft | 386 kts | 313° |
| 2026-05-04 04:10 | 37.27418 | -101.26185 | 25649 ft | 388 kts | 313° |
| 2026-05-04 04:11 | 37.29318 | -101.28601 | 26100 ft | 389 kts | 312° |
| 2026-05-04 04:11 | 37.31224 | -101.31028 | 26531 ft | 391 kts | 312° |
| 2026-05-04 04:11 | 37.33140 | -101.33469 | 26939 ft | 394 kts | 312° |
| 2026-05-04 04:11 | 37.35068 | -101.35929 | 27365 ft | 396 kts | 312° |
| 2026-05-04 04:12 | 37.37005 | -101.38401 | 27788 ft | 398 kts | 312° |
| 2026-05-04 04:12 | 37.38955 | -101.40888 | 28212 ft | 400 kts | 312° |
| 2026-05-04 04:12 | 37.40913 | -101.43385 | 28631 ft | 403 kts | 313° |
| 2026-05-04 04:12 | 37.42889 | -101.45907 | 29016 ft | 406 kts | 313° |
| 2026-05-04 04:13 | 37.44874 | -101.48443 | 29380 ft | 408 kts | 313° |
| 2026-05-04 04:13 | 37.46868 | -101.50993 | 29773 ft | 410 kts | 312° |
| 2026-05-04 04:13 | 37.48875 | -101.53566 | 30091 ft | 413 kts | 312° |
| 2026-05-04 04:13 | 37.50890 | -101.56151 | 30428 ft | 414 kts | 312° |
| 2026-05-04 04:14 | 37.52915 | -101.58748 | 30758 ft | 416 kts | 312° |
| 2026-05-04 04:14 | 37.54943 | -101.61354 | 31081 ft | 417 kts | 312° |
| 2026-05-04 04:14 | 37.56975 | -101.63973 | 31400 ft | 419 kts | 312° |
| 2026-05-04 04:14 | 37.59016 | -101.66604 | 31712 ft | 420 kts | 312° |
| 2026-05-04 04:15 | 37.61029 | -101.69200 | 31871 ft | 416 kts | 312° |
| 2026-05-04 04:15 | 37.63040 | -101.71792 | 31867 ft | 401 kts | 312° |
| 2026-05-04 04:15 | 37.66841 | -101.76698 | 31869 ft | 389 kts | 312° |
| 2026-05-04 04:16 | 37.70622 | -101.81573 | 31852 ft | 388 kts | 312° |
| 2026-05-04 04:16 | 37.74394 | -101.86452 | 31834 ft | 388 kts | 312° |
| 2026-05-04 04:17 | 37.78153 | -101.91332 | 31817 ft | 388 kts | 312° |
| 2026-05-04 04:17 | 37.81915 | -101.96217 | 31797 ft | 387 kts | 312° |
| 2026-05-04 04:18 | 37.85673 | -102.01103 | 31773 ft | 387 kts | 312° |
| 2026-05-04 04:18 | 37.89427 | -102.05992 | 31792 ft | 386 kts | 311° |
| 2026-05-04 04:19 | 37.93138 | -102.10829 | 31804 ft | 384 kts | 311° |
| 2026-05-04 04:19 | 37.96846 | -102.15675 | 31802 ft | 382 kts | 311° |
| 2026-05-04 04:20 | 38.00546 | -102.20509 | 31798 ft | 381 kts | 311° |
| 2026-05-04 04:20 | 38.04236 | -102.25340 | 31807 ft | 382 kts | 311° |
| 2026-05-04 04:21 | 38.07923 | -102.30188 | 31801 ft | 382 kts | 311° |
| 2026-05-04 04:21 | 38.11618 | -102.35041 | 31808 ft | 382 kts | 311° |
| 2026-05-04 04:22 | 38.15313 | -102.39913 | 31815 ft | 383 kts | 311° |
| 2026-05-04 04:22 | 38.19004 | -102.44779 | 31819 ft | 382 kts | 311° |
| 2026-05-04 04:23 | 38.22688 | -102.49642 | 31839 ft | 382 kts | 311° |
| 2026-05-04 04:23 | 38.26377 | -102.54519 | 31826 ft | 382 kts | 311° |
| 2026-05-04 04:24 | 38.30062 | -102.59402 | 31814 ft | 383 kts | 311° |
| 2026-05-04 04:24 | 38.33754 | -102.64294 | 31804 ft | 383 kts | 311° |
| 2026-05-04 04:25 | 38.37440 | -102.69196 | 31794 ft | 383 kts | 311° |
| 2026-05-04 04:25 | 38.41125 | -102.74102 | 31781 ft | 383 kts | 311° |
| 2026-05-04 04:26 | 38.44788 | -102.78986 | 31772 ft | 384 kts | 310° |
| 2026-05-04 04:26 | 38.48481 | -102.83918 | 31769 ft | 385 kts | 310° |
| 2026-05-04 04:27 | 38.52179 | -102.88865 | 31772 ft | 385 kts | 310° |
| 2026-05-04 04:27 | 38.55874 | -102.93816 | 31772 ft | 385 kts | 310° |
| 2026-05-04 04:28 | 38.59572 | -102.98775 | 31773 ft | 385 kts | 310° |
| 2026-05-04 04:28 | 38.63271 | -103.03741 | 31791 ft | 386 kts | 310° |
| 2026-05-04 04:29 | 38.66964 | -103.08714 | 31787 ft | 385 kts | 310° |
| 2026-05-04 04:29 | 38.70631 | -103.13659 | 31801 ft | 385 kts | 310° |
| 2026-05-04 04:30 | 38.74308 | -103.18618 | 31813 ft | 383 kts | 310° |
| 2026-05-04 04:30 | 38.77963 | -103.23570 | 31809 ft | 382 kts | 310° |
| 2026-05-04 04:31 | 38.81606 | -103.28504 | 31804 ft | 381 kts | 310° |
| 2026-05-04 04:31 | 38.85242 | -103.33439 | 31804 ft | 381 kts | 310° |
| 2026-05-04 04:32 | 38.88880 | -103.38385 | 31792 ft | 381 kts | 310° |
| 2026-05-04 04:32 | 38.92514 | -103.43327 | 31786 ft | 381 kts | 310° |
| 2026-05-04 04:33 | 38.96150 | -103.48277 | 31794 ft | 381 kts | 310° |
| 2026-05-04 04:33 | 38.99775 | -103.53244 | 31812 ft | 381 kts | 310° |
| 2026-05-04 04:34 | 39.03412 | -103.58218 | 31851 ft | 383 kts | 310° |
| 2026-05-04 04:34 | 39.07064 | -103.63216 | 31878 ft | 384 kts | 310° |
| 2026-05-04 04:35 | 39.10717 | -103.68224 | 31906 ft | 384 kts | 310° |
| 2026-05-04 04:35 | 39.14377 | -103.73251 | 31926 ft | 385 kts | 310° |
| 2026-05-04 04:36 | 39.18031 | -103.78278 | 31935 ft | 385 kts | 310° |
| 2026-05-04 04:36 | 39.21070 | -103.82470 | 31947 ft | 385 kts | 310° |
| 2026-05-04 04:37 | 39.28380 | -103.92562 | 31887 ft | 385 kts | 310° |
| 2026-05-04 04:38 | 39.32621 | -103.98449 | 31858 ft | 386 kts | 310° |
| 2026-05-04 04:38 | 39.35681 | -104.02707 | 31829 ft | 386 kts | 310° |
| 2026-05-04 04:39 | 39.39337 | -104.07779 | 31794 ft | 386 kts | 310° |
| 2026-05-04 04:39 | 39.42997 | -104.12851 | 31813 ft | 385 kts | 310° |
| 2026-05-04 04:40 | 39.46641 | -104.17930 | 31799 ft | 385 kts | 310° |
| 2026-05-04 04:40 | 39.50249 | -104.22985 | 31785 ft | 385 kts | 309° |
| 2026-05-04 04:41 | 39.53894 | -104.28087 | 31801 ft | 387 kts | 309° |
| 2026-05-04 04:41 | 39.57553 | -104.33218 | 31839 ft | 388 kts | 309° |
| 2026-05-04 04:42 | 39.61215 | -104.38359 | 31885 ft | 388 kts | 310° |
| 2026-05-04 04:42 | 39.64886 | -104.43489 | 31922 ft | 389 kts | 313° |
| 2026-05-04 04:43 | 39.69377 | -104.47455 | 31960 ft | 397 kts | 332° |
| 2026-05-04 04:43 | 39.74652 | -104.49749 | 31970 ft | 401 kts | 338° |
| 2026-05-04 04:44 | 39.79956 | -104.51956 | 31969 ft | 400 kts | 338° |
| 2026-05-04 04:44 | 39.85263 | -104.54180 | 31968 ft | 400 kts | 337° |
| 2026-05-04 04:45 | 39.90564 | -104.56411 | 31955 ft | 400 kts | 337° |
| 2026-05-04 04:47 | 40.04899 | -104.70691 | 31894 ft | 382 kts | 284° |
| 2026-05-04 04:47 | 40.06128 | -104.77447 | 31872 ft | 383 kts | 283° |
| 2026-05-04 04:47 | 40.06740 | -104.80826 | 31731 ft | 384 kts | 283° |
| 2026-05-04 04:48 | 40.07356 | -104.84226 | 31462 ft | 385 kts | 283° |
| 2026-05-04 04:49 | 40.09817 | -104.97871 | 30397 ft | 386 kts | 283° |
| 2026-05-04 04:49 | 40.10430 | -105.01285 | 30314 ft | 385 kts | 283° |
| 2026-05-04 04:49 | 40.11030 | -105.04641 | 30094 ft | 384 kts | 283° |
| 2026-05-04 04:49 | 40.11630 | -105.08079 | 29827 ft | 383 kts | 282° |
| 2026-05-04 04:50 | 40.12203 | -105.11420 | 29540 ft | 381 kts | 282° |
| 2026-05-04 04:50 | 40.12781 | -105.14791 | 29265 ft | 380 kts | 282° |
| 2026-05-04 04:50 | 40.13356 | -105.18153 | 29030 ft | 378 kts | 282° |
| 2026-05-04 04:50 | 40.13927 | -105.21513 | 28940 ft | 380 kts | 282° |
| 2026-05-04 04:51 | 40.14441 | -105.24944 | 27577 ft | 394 kts | 276° |
| 2026-05-04 04:51 | 40.14381 | -105.28606 | 25982 ft | 413 kts | 267° |
| 2026-05-04 04:51 | 40.14156 | -105.32404 | 25018 ft | 416 kts | 266° |
| 2026-05-04 04:51 | 40.13926 | -105.36193 | 23911 ft | 421 kts | 266° |
| 2026-05-04 04:52 | 40.13690 | -105.39989 | 23311 ft | 413 kts | 266° |
| 2026-05-04 04:52 | 40.13488 | -105.43649 | 23155 ft | 395 kts | 268° |
| 2026-05-04 04:52 | 40.13313 | -105.47154 | 22999 ft | 379 kts | 268° |
| 2026-05-04 04:52 | 40.13142 | -105.50526 | 22860 ft | 366 kts | 268° |
| 2026-05-04 04:53 | 40.12918 | -105.53784 | 22624 ft | 356 kts | 264° |
| 2026-05-04 04:53 | 40.12560 | -105.56944 | 22414 ft | 347 kts | 263° |
| 2026-05-04 04:53 | 40.12174 | -105.60014 | 22176 ft | 340 kts | 262° |
| 2026-05-04 04:53 | 40.11792 | -105.63050 | 21935 ft | 337 kts | 265° |
| 2026-05-04 04:54 | 40.11611 | -105.66090 | 21709 ft | 334 kts | 268° |
| 2026-05-04 04:54 | 40.11454 | -105.69115 | 21473 ft | 332 kts | 268° |
| 2026-05-04 04:54 | 40.11305 | -105.72115 | 21241 ft | 331 kts | 267° |
| 2026-05-04 04:54 | 40.11158 | -105.75112 | 21008 ft | 330 kts | 268° |
| 2026-05-04 04:55 | 40.11013 | -105.78099 | 20780 ft | 329 kts | 268° |
| 2026-05-04 04:55 | 40.10868 | -105.81038 | 20547 ft | 327 kts | 268° |
| 2026-05-04 04:55 | 40.10717 | -105.84036 | 20298 ft | 326 kts | 267° |
| 2026-05-04 04:55 | 40.10566 | -105.86988 | 20053 ft | 325 kts | 267° |
| 2026-05-04 04:56 | 40.10415 | -105.89926 | 19811 ft | 324 kts | 267° |
| 2026-05-04 04:56 | 40.10263 | -105.92857 | 19570 ft | 323 kts | 267° |
| 2026-05-04 04:56 | 40.10115 | -105.95737 | 19096 ft | 321 kts | 267° |
| 2026-05-04 04:56 | 40.09967 | -105.98625 | 18867 ft | 315 kts | 267° |
| 2026-05-04 04:57 | 40.09821 | -106.01449 | 18521 ft | 311 kts | 266° |
| 2026-05-04 04:57 | 40.09674 | -106.04265 | 18089 ft | 311 kts | 266° |
| 2026-05-04 04:57 | 40.09527 | -106.07074 | 17619 ft | 309 kts | 266° |
| 2026-05-04 04:57 | 40.09380 | -106.09876 | 17160 ft | 308 kts | 266° |
| 2026-05-04 04:58 | 40.09235 | -106.12655 | 16735 ft | 306 kts | 267° |
| 2026-05-04 04:58 | 40.09090 | -106.15418 | 16324 ft | 304 kts | 267° |
| 2026-05-04 04:58 | 40.08884 | -106.18165 | 15910 ft | 304 kts | 261° |
| 2026-05-04 04:58 | 40.08261 | -106.20783 | 15686 ft | 301 kts | 250° |
| 2026-05-04 04:59 | 40.07480 | -106.23325 | 15598 ft | 302 kts | 250° |
| 2026-05-04 04:59 | 40.06714 | -106.25874 | 15471 ft | 301 kts | 251° |
| 2026-05-04 04:59 | 40.05956 | -106.28418 | 15341 ft | 301 kts | 251° |
| 2026-05-04 04:59 | 40.05197 | -106.30964 | 15211 ft | 301 kts | 251° |
| 2026-05-04 05:00 | 40.04440 | -106.33502 | 15082 ft | 300 kts | 251° |
| 2026-05-04 05:00 | 40.03683 | -106.36021 | 14942 ft | 294 kts | 250° |
| 2026-05-04 05:00 | 40.02235 | -106.40823 | 14706 ft | 275 kts | 250° |
| 2026-05-04 05:01 | 40.01399 | -106.43027 | 14589 ft | 269 kts | 237° |
| 2026-05-04 05:01 | 40.00116 | -106.44759 | 14472 ft | 265 kts | 220° |
| 2026-05-04 05:01 | 39.98664 | -106.46184 | 14364 ft | 258 kts | 220° |
| 2026-05-04 05:01 | 39.97254 | -106.47570 | 14256 ft | 250 kts | 220° |
| 2026-05-04 05:02 | 39.95893 | -106.48907 | 14143 ft | 246 kts | 220° |
| 2026-05-04 05:02 | 39.94531 | -106.50247 | 14036 ft | 245 kts | 220° |
| 2026-05-04 05:02 | 39.93175 | -106.51584 | 13925 ft | 243 kts | 221° |
| 2026-05-04 05:02 | 39.91833 | -106.52912 | 13824 ft | 242 kts | 221° |
| 2026-05-04 05:03 | 39.90491 | -106.54240 | 13550 ft | 242 kts | 221° |
| 2026-05-04 05:03 | 39.89156 | -106.55557 | 13304 ft | 240 kts | 220° |
| 2026-05-04 05:04 | 39.85260 | -106.59383 | 12721 ft | 224 kts | 220° |
| 2026-05-04 05:04 | 39.84026 | -106.60595 | 12639 ft | 221 kts | 220° |
| 2026-05-04 05:04 | 39.82709 | -106.61631 | 12546 ft | 224 kts | 204° |
| 2026-05-04 05:06 | 39.72594 | -106.63413 | 11133 ft | 179 kts | 189° |
| 2026-05-04 05:06 | 39.71386 | -106.63606 | 10964 ft | 171 kts | 190° |
| 2026-05-04 05:06 | 39.70255 | -106.63957 | 10821 ft | 161 kts | 204° |
| 2026-05-04 05:07 | 39.69312 | -106.64660 | 10746 ft | 153 kts | 218° |
| 2026-05-04 05:07 | 39.68568 | -106.65618 | 10578 ft | 150 kts | 227° |
| 2026-05-04 05:07 | 39.67880 | -106.66602 | 10394 ft | 148 kts | 226° |
| 2026-05-04 05:09 | 39.66146 | -106.76816 | 9149 ft | 147 kts | 259° |
| 2026-05-04 05:09 | 39.65908 | -106.78118 | 9012 ft | 149 kts | 254° |
| 2026-05-04 05:10 | 39.65660 | -106.79430 | 8764 ft | 151 kts | 255° |
| 2026-05-04 05:10 | 39.65517 | -106.80772 | 8418 ft | 149 kts | 265° |
| 2026-05-04 05:10 | 39.65451 | -106.82102 | 8178 ft | 148 kts | 261° |
| 2026-05-04 05:10 | 39.65228 | -106.83390 | 7906 ft | 146 kts | 258° |
| 2026-05-04 05:11 | 39.65021 | -106.84670 | 7549 ft | 143 kts | 262° |
| 2026-05-04 05:11 | 39.64906 | -106.85950 | 7272 ft | 143 kts | 260° |
| 2026-05-04 05:11 | 39.64752 | -106.87215 | 7071 ft | 143 kts | 256° |
| 2026-05-04 05:11 | 39.64617 | -106.88515 | 6925 ft | 148 kts | 263° |
| 2026-05-04 05:12 | 39.64466 | -106.89847 | 6635 ft | 150 kts | 261° |
| 2026-05-04 05:12 | 39.64325 | -106.91135 | 6534 ft | 131 kts | 260° |
| 2026-05-04 05:12 | 39.64212 | -106.92154 | 6494 ft | 98 kts | 263° |
| 2026-05-04 05:12 | 39.64131 | -106.92884 | 6478 ft | 67 kts | 262° |
| 2026-05-04 05:13 | 39.64079 | -106.93141 | 6463 ft | 15 kts | 211° |
| 2026-05-04 05:13 | 39.64010 | -106.93097 | 6467 ft | 9 kts | 84° |
| 2026-05-04 05:13 | 39.64015 | -106.93002 | 6468 ft | 12 kts | 86° |
| 2026-05-04 05:13 | 39.64026 | -106.92879 | 6473 ft | 16 kts | 83° |
| 2026-05-04 05:14 | 39.64039 | -106.92716 | 6473 ft | 20 kts | 85° |
| 2026-05-04 05:14 | 39.64065 | -106.92524 | 6486 ft | 24 kts | 81° |
| 2026-05-04 05:14 | 39.64090 | -106.92296 | 6491 ft | 27 kts | 83° |
| 2026-05-04 05:14 | 39.64099 | -106.92191 | 6494 ft | 3 kts | 84° |
| 2026-05-04 05:15 | 39.64101 | -106.92168 | 6495 ft | 8 kts | 80° |
| 2026-05-04 05:15 | 39.64116 | -106.92054 | 6498 ft | 12 kts | 81° |
| 2026-05-04 05:15 | 39.64130 | -106.91924 | 6502 ft | 17 kts | 82° |
| 2026-05-04 05:15 | 39.64148 | -106.91737 | 6507 ft | 27 kts | 83° |
| 2026-05-04 05:16 | 39.64149 | -106.91604 | 6511 ft | 14 kts | 109° |
| 2026-05-04 05:16 | 39.64089 | -106.91489 | 6515 ft | 17 kts | 153° |
| 2026-05-04 05:16 | 39.64064 | -106.91462 | 6515 ft | 0 kts | 128° |